createdAt,value
2022-11-19T00:11:47.629Z,9.5
2022-11-19T00:27:00.021Z,8.7
2022-11-19T00:42:09.367Z,8.4
2022-11-19T00:57:18.765Z,8.9
2022-11-19T01:12:27.989Z,9.3
2022-11-19T01:27:36.916Z,9.3
2022-11-19T01:42:47.028Z,8.7
2022-11-19T01:58:00.387Z,9.7
2022-11-19T02:13:09.916Z,9.9
2022-11-19T02:32:40.360Z,12.6
2022-11-19T02:47:52.060Z,8.6
2022-11-19T03:03:00.746Z,8
2022-11-19T03:18:10.358Z,9.4
2022-11-19T03:33:19.180Z,10
2022-11-19T03:48:29.203Z,8.6
2022-11-19T04:03:38.530Z,9
2022-11-19T04:18:47.780Z,8.9
2022-11-19T04:33:57.514Z,8.6
2022-11-19T04:49:06.353Z,8.6
2022-11-19T05:04:15.687Z,7.8
2022-11-19T05:19:24.955Z,7.9
2022-11-19T05:34:34.511Z,8.1
2022-11-19T05:52:55.173Z,10.7
2022-11-19T06:08:05.888Z,8.7
2022-11-19T06:23:14.923Z,7.7
2022-11-19T06:38:24.660Z,8.9
2022-11-19T06:53:33.978Z,8.3
2022-11-19T07:08:43.160Z,7.6
2022-11-19T07:23:52.461Z,9
2022-11-19T07:39:02.386Z,19.4
2022-11-19T07:54:11.897Z,10.3
2022-11-19T08:09:22.157Z,11
2022-11-19T08:24:32.063Z,9.1
2022-11-19T08:39:42.079Z,13
2022-11-19T08:54:51.564Z,8.3
2022-11-19T09:10:00.983Z,9
2022-11-19T09:25:10.916Z,8.8
2022-11-19T09:40:20.498Z,8.5
2022-11-19T09:55:30.527Z,8.6
2022-11-19T10:10:39.945Z,10.6
2022-11-19T10:25:48.827Z,9.1
2022-11-19T10:40:58.216Z,10.3
2022-11-19T10:56:08.021Z,9.4
2022-11-19T11:11:17.417Z,8
2022-11-19T11:26:26.955Z,7.5
2022-11-19T11:42:07.947Z,8.7
2022-11-19T11:57:28.423Z,6.8
2022-11-19T12:12:38.220Z,6.4
2022-11-19T12:27:48.165Z,6.2
2022-11-19T12:43:01.013Z,7.8
2022-11-19T12:58:10.946Z,5.7
2022-11-19T13:13:21.042Z,9.3
2022-11-19T13:28:29.990Z,9.3
2022-11-19T13:43:39.398Z,8.3
2022-11-19T13:58:49.244Z,7.8
2022-11-19T14:14:01.142Z,8.5
2022-11-19T14:29:10.434Z,6.8
2022-11-19T14:44:20.142Z,7.6
2022-11-19T14:59:29.552Z,7.6
2022-11-19T15:14:40.098Z,6.4
2022-11-19T15:29:49.460Z,8.3
2022-11-19T15:44:58.830Z,8.9
2022-11-19T16:00:07.059Z,14.2
2022-11-19T16:15:16.311Z,12.8
2022-11-19T16:30:25.894Z,15.3
2022-11-19T16:45:35.447Z,24.7
2022-11-19T17:00:44.603Z,12.6
2022-11-19T17:15:54.640Z,13.1
2022-11-19T17:31:03.228Z,13.7
2022-11-19T17:46:12.613Z,17.7
2022-11-19T18:01:22.472Z,14
2022-11-19T18:16:32.059Z,15.5
2022-11-19T18:31:41.274Z,11.5
2022-11-19T18:46:50.876Z,12.4
2022-11-19T19:02:02.239Z,11.5
2022-11-19T19:17:12.158Z,12.4
2022-11-19T19:32:22.025Z,13.5
2022-11-19T19:47:31.321Z,15.6
2022-11-19T20:02:40.164Z,12.8
2022-11-19T20:17:49.558Z,13.1
2022-11-19T20:33:01.461Z,13.8
2022-11-19T20:48:10.805Z,14
2022-11-19T21:03:20.359Z,13.7
2022-11-19T21:18:36.966Z,12
2022-11-19T21:33:46.446Z,13.3
2022-11-19T21:48:55.717Z,14.1
2022-11-19T22:04:05.116Z,13.1
2022-11-19T22:19:14.366Z,13.3
2022-11-19T22:34:24.437Z,16
2022-11-19T22:49:33.780Z,12.2
2022-11-19T23:04:43.189Z,13.2
2022-11-19T23:19:52.162Z,12.2
2022-11-19T23:35:02.215Z,12.6
2022-11-19T23:50:11.898Z,12.8
